createdAt,value
2023-01-13T00:01:27.819Z,26.27
2023-01-13T00:03:55.050Z,26.20
2023-01-13T00:06:27.813Z,31.10
2023-01-13T00:08:55.343Z,27.27
2023-01-13T00:11:23.348Z,31.73
2023-01-13T00:13:50.516Z,24.13
2023-01-13T00:16:19.364Z,33.43
2023-01-13T00:18:47.239Z,32.97
2023-01-13T00:21:20.803Z,32.03
2023-01-13T00:23:48.541Z,28.77
2023-01-13T00:26:25.722Z,29.87
2023-01-13T00:28:58.655Z,31.20
2023-01-13T00:31:28.620Z,28.67
2023-01-13T00:34:01.314Z,30.87
2023-01-13T00:36:30.827Z,25.27
2023-01-13T00:38:58.732Z,27.63
2023-01-13T00:41:27.563Z,24.93
2023-01-13T00:43:54.635Z,28.40
2023-01-13T00:46:22.916Z,27.13
2023-01-13T00:48:51.526Z,25.07
2023-01-13T00:51:20.972Z,23.30
2023-01-13T00:53:51.837Z,24.23
2023-01-13T00:56:38.528Z,30.37
2023-01-13T00:59:06.832Z,25.37
2023-01-13T01:01:33.912Z,22.80
2023-01-13T01:04:00.919Z,22.67
2023-01-13T01:06:28.866Z,21.03
2023-01-13T01:08:59.293Z,23.90
2023-01-13T01:11:29.686Z,23.60
2023-01-13T01:14:01.622Z,20.93
2023-01-13T01:16:32.007Z,19.93
2023-01-13T01:18:59.661Z,23.17
2023-01-13T01:21:28.670Z,25.13
2023-01-13T01:23:56.144Z,18.03
2023-01-13T01:26:26.226Z,18.67
2023-01-13T01:28:54.032Z,15.77
2023-01-13T01:31:33.267Z,25.07
2023-01-13T01:34:02.031Z,23.13
2023-01-13T01:36:30.319Z,23.23
2023-01-13T01:38:58.659Z,18.57
2023-01-13T01:41:32.656Z,23.73
2023-01-13T01:44:08.426Z,22.97
2023-01-13T01:46:41.670Z,16.93
2023-01-13T01:49:27.788Z,19.30
2023-01-13T01:52:07.171Z,18.87
2023-01-13T01:54:52.365Z,19.40
2023-01-13T01:57:44.900Z,25.47
2023-01-13T02:00:14.169Z,20.07
2023-01-13T02:02:45.369Z,23.03
2023-01-13T02:05:13.170Z,18.30
2023-01-13T02:07:43.761Z,23.00
2023-01-13T02:10:15.951Z,23.40
2023-01-13T02:12:45.361Z,19.23
2023-01-13T02:15:20.273Z,23.80
2023-01-13T02:18:26.000Z,21.17
2023-01-13T02:21:37.914Z,21.10
2023-01-13T02:24:54.016Z,13.70
2023-01-13T02:27:29.705Z,15.47
2023-01-13T02:30:37.594Z,17.03
2023-01-13T02:33:19.381Z,17.47
2023-01-13T02:36:23.593Z,17.90
2023-01-13T02:38:57.766Z,24.63
2023-01-13T02:42:25.208Z,19.50
2023-01-13T02:45:20.948Z,19.33
2023-01-13T02:47:50.293Z,14.10
2023-01-13T02:50:27.553Z,18.67
2023-01-13T02:53:18.416Z,15.20
2023-01-13T02:55:50.152Z,20.43
2023-01-13T02:58:21.611Z,15.97
2023-01-13T03:00:50.941Z,20.63
2023-01-13T03:03:20.183Z,17.77
2023-01-13T03:05:52.557Z,25.70
2023-01-13T03:08:46.708Z,18.30
2023-01-13T03:11:17.738Z,22.23
2023-01-13T03:14:02.676Z,13.73
2023-01-13T03:16:35.786Z,16.67
2023-01-13T03:19:16.435Z,13.37
2023-01-13T03:22:45.026Z,20.13
2023-01-13T03:25:16.317Z,17.13
2023-01-13T03:27:53.372Z,21.50
2023-01-13T03:30:29.404Z,19.40
2023-01-13T03:33:05.205Z,15.03
2023-01-13T03:35:40.713Z,13.83
2023-01-13T03:38:23.374Z,16.70
2023-01-13T03:41:22.809Z,16.67
2023-01-13T03:44:22.413Z,17.23
2023-01-13T03:47:06.947Z,16.20
2023-01-13T03:49:46.467Z,15.43
2023-01-13T03:52:25.156Z,11.53
2023-01-13T03:54:59.570Z,11.97
2023-01-13T03:57:34.075Z,10.13
2023-01-13T04:00:04.067Z,15.23
2023-01-13T04:02:39.206Z,15.77
2023-01-13T04:05:09.393Z,16.53
2023-01-13T04:07:56.661Z,18.07
2023-01-13T04:10:43.219Z,12.47
2023-01-13T04:13:19.141Z,12.37
2023-01-13T04:15:47.092Z,13.70
2023-01-13T04:18:24.010Z,13.93
2023-01-13T04:20:53.238Z,15.27
2023-01-13T04:23:22.002Z,20.97
2023-01-13T04:25:50.068Z,11.53
2023-01-13T04:28:19.026Z,15.63
2023-01-13T04:30:47.416Z,12.00
2023-01-13T04:33:16.880Z,15.40
2023-01-13T04:35:45.963Z,13.97
2023-01-13T04:38:19.804Z,13.30
2023-01-13T04:40:47.543Z,14.00
2023-01-13T04:43:24.724Z,14.73
2023-01-13T04:45:51.890Z,13.07
2023-01-13T04:48:18.910Z,10.80
2023-01-13T04:50:45.858Z,19.87
2023-01-13T04:53:12.906Z,15.07
2023-01-13T04:55:39.834Z,18.73
2023-01-13T04:58:09.655Z,14.90
2023-01-13T05:00:37.856Z,13.47
2023-01-13T05:03:05.257Z,26.77
2023-01-13T05:05:32.803Z,22.73
2023-01-13T05:08:00.560Z,16.53
2023-01-13T05:10:27.615Z,14.93
2023-01-13T05:13:13.416Z,23.33
2023-01-13T05:16:01.031Z,19.93
2023-01-13T05:18:30.071Z,17.17
2023-01-13T05:20:57.729Z,20.77
2023-01-13T05:23:42.916Z,27.90
2023-01-13T05:26:09.943Z,27.90
2023-01-13T05:28:36.874Z,23.83
2023-01-13T05:31:03.878Z,20.30
2023-01-13T05:33:31.204Z,17.93
2023-01-13T05:36:03.173Z,21.33
2023-01-13T05:38:30.189Z,26.93
2023-01-13T05:41:18.675Z,28.67
2023-01-13T05:43:45.921Z,28.93
2023-01-13T05:46:13.336Z,22.67
2023-01-13T05:48:44.108Z,27.10
2023-01-13T05:51:12.873Z,21.33
2023-01-13T05:53:42.922Z,21.30
2023-01-13T05:56:11.452Z,23.27
2023-01-13T05:58:38.753Z,26.07
2023-01-13T06:01:08.713Z,22.30
2023-01-13T06:03:36.782Z,22.90
2023-01-13T06:06:04.631Z,30.97
2023-01-13T06:08:32.263Z,20.03
2023-01-13T06:10:59.356Z,24.73
2023-01-13T06:13:26.551Z,26.20
2023-01-13T06:15:58.454Z,24.00
2023-01-13T06:18:26.072Z,30.93
2023-01-13T06:20:53.156Z,33.23
2023-01-13T06:23:20.387Z,29.93
2023-01-13T06:26:04.931Z,31.70
2023-01-13T06:28:33.322Z,29.10
2023-01-13T06:31:06.717Z,25.30
2023-01-13T06:33:58.518Z,25.63
2023-01-13T06:36:48.816Z,32.67
2023-01-13T06:39:20.728Z,24.63
2023-01-13T06:42:08.137Z,28.90
2023-01-13T06:44:35.111Z,28.97
2023-01-13T06:47:05.065Z,31.73
2023-01-13T06:49:32.003Z,28.87
2023-01-13T06:51:58.961Z,30.97
2023-01-13T06:54:27.686Z,27.07
2023-01-13T06:56:54.841Z,36.13
2023-01-13T06:59:22.634Z,29.77
2023-01-13T07:01:49.805Z,29.63
2023-01-13T07:04:20.984Z,29.63
2023-01-13T07:06:48.035Z,29.43
2023-01-13T07:09:15.088Z,26.33
2023-01-13T07:11:42.137Z,41.60
2023-01-13T07:14:27.416Z,27.23
2023-01-13T07:16:54.366Z,26.30
2023-01-13T07:19:23.925Z,29.20
2023-01-13T07:21:52.546Z,26.50
2023-01-13T07:24:20.388Z,30.07
2023-01-13T07:26:47.330Z,30.83
2023-01-13T07:29:14.472Z,30.53
2023-01-13T07:31:41.487Z,30.63
2023-01-13T07:34:08.545Z,31.10
2023-01-13T07:36:35.830Z,24.10
2023-01-13T07:39:03.569Z,34.67
2023-01-13T07:41:49.029Z,33.67
2023-01-13T07:44:16.119Z,29.43
2023-01-13T07:46:43.078Z,26.07
2023-01-13T07:49:10.385Z,29.50
2023-01-13T07:51:39.330Z,23.27
2023-01-13T07:54:06.801Z,32.90
2023-01-13T07:56:33.923Z,31.37
2023-01-13T07:59:01.265Z,31.20
2023-01-13T08:01:29.219Z,30.23
2023-01-13T08:03:57.676Z,34.83
2023-01-13T08:06:26.026Z,31.57
2023-01-13T08:08:53.123Z,34.37
2023-01-13T08:11:22.138Z,31.67
2023-01-13T08:13:50.594Z,30.00
2023-01-13T08:16:17.918Z,25.60
2023-01-13T08:18:44.876Z,35.90
2023-01-13T08:21:14.502Z,37.80
2023-01-13T08:23:43.448Z,27.90
2023-01-13T08:26:14.624Z,31.43
2023-01-13T08:28:41.562Z,36.10
2023-01-13T08:31:14.125Z,38.23
2023-01-13T08:33:41.752Z,32.00
2023-01-13T08:36:12.312Z,33.67
2023-01-13T08:38:40.714Z,42.67
2023-01-13T08:41:13.794Z,33.83
2023-01-13T08:43:41.170Z,43.87
2023-01-13T08:46:08.400Z,39.00
2023-01-13T08:48:35.946Z,31.93
2023-01-13T08:51:06.781Z,28.10
2023-01-13T08:53:37.325Z,41.27
2023-01-13T08:56:11.874Z,35.63
2023-01-13T08:58:41.940Z,39.73
2023-01-13T09:01:14.433Z,34.43
2023-01-13T09:03:41.985Z,34.93
2023-01-13T09:06:09.190Z,30.13
2023-01-13T09:08:36.169Z,33.63
2023-01-13T09:11:23.173Z,31.67
2023-01-13T09:13:50.539Z,26.27
2023-01-13T09:16:17.779Z,31.63
2023-01-13T09:18:44.781Z,27.67
2023-01-13T09:21:12.003Z,35.60
2023-01-13T09:23:38.954Z,29.00
2023-01-13T09:26:05.869Z,35.77
2023-01-13T09:28:33.530Z,37.50
2023-01-13T09:31:03.342Z,41.03
2023-01-13T09:33:48.905Z,31.30
2023-01-13T09:36:15.935Z,37.13
2023-01-13T09:38:42.938Z,33.10
2023-01-13T09:41:39.661Z,26.83
2023-01-13T09:44:18.274Z,32.47
2023-01-13T09:46:53.318Z,29.30
2023-01-13T09:49:35.955Z,29.10
2023-01-13T09:52:26.671Z,27.83
2023-01-13T09:55:16.772Z,33.77
2023-01-13T09:57:43.793Z,35.03
2023-01-13T10:00:16.829Z,26.70
2023-01-13T10:03:22.933Z,28.40
2023-01-13T10:06:30.534Z,26.30
2023-01-13T10:08:58.231Z,35.70
2023-01-13T10:11:51.638Z,20.33
2023-01-13T10:14:43.063Z,34.00
2023-01-13T10:17:43.535Z,29.07
2023-01-13T10:20:36.341Z,26.37
2023-01-13T10:23:27.257Z,21.60
2023-01-13T10:26:29.019Z,21.53
2023-01-13T10:28:57.397Z,25.47
2023-01-13T10:31:26.104Z,19.80
2023-01-13T10:34:04.042Z,30.70
2023-01-13T10:36:31.037Z,25.87
2023-01-13T10:39:15.534Z,22.90
2023-01-13T10:41:44.134Z,32.67
2023-01-13T10:44:17.507Z,22.73
2023-01-13T10:46:59.493Z,28.23
2023-01-13T10:49:36.577Z,20.83
2023-01-13T10:52:28.223Z,32.63
2023-01-13T10:54:55.930Z,25.77
2023-01-13T10:57:28.421Z,27.13
2023-01-13T10:59:56.382Z,23.80
2023-01-13T11:02:30.687Z,26.33
2023-01-13T11:05:02.664Z,22.57
2023-01-13T11:07:42.433Z,21.47
2023-01-13T11:10:09.399Z,25.87
2023-01-13T11:13:04.053Z,26.07
2023-01-13T11:15:45.236Z,21.87
2023-01-13T11:18:25.021Z,22.43
2023-01-13T11:20:53.673Z,28.83
2023-01-13T11:23:34.515Z,19.83
2023-01-13T11:26:24.089Z,25.93
2023-01-13T11:29:06.012Z,18.33
2023-01-13T11:31:53.792Z,14.90
2023-01-13T11:34:36.259Z,28.50
2023-01-13T11:37:15.252Z,18.87
2023-01-13T11:39:53.950Z,17.30
2023-01-13T11:42:40.370Z,20.80
2023-01-13T11:45:56.437Z,25.63
2023-01-13T11:48:28.639Z,21.67
2023-01-13T11:51:13.862Z,22.00
2023-01-13T11:53:54.039Z,22.83
2023-01-13T11:57:12.989Z,20.13
2023-01-13T12:00:13.288Z,24.00
2023-01-13T12:03:00.523Z,19.13
2023-01-13T12:05:41.276Z,23.40
2023-01-13T12:08:45.969Z,22.80
2023-01-13T12:12:02.027Z,18.30
2023-01-13T12:15:07.827Z,21.77
2023-01-13T12:17:59.566Z,19.73
2023-01-13T12:20:54.307Z,22.10
2023-01-13T12:23:54.651Z,22.93
2023-01-13T12:26:22.328Z,21.37
2023-01-13T12:29:00.380Z,16.40
2023-01-13T12:31:28.660Z,22.10
2023-01-13T12:34:23.257Z,19.83
2023-01-13T12:37:26.961Z,30.30
2023-01-13T12:40:19.354Z,25.73
2023-01-13T12:43:31.658Z,22.77
2023-01-13T12:46:21.430Z,22.77
2023-01-13T12:48:57.250Z,25.47
2023-01-13T12:51:37.695Z,26.33
2023-01-13T12:54:43.534Z,30.53
2023-01-13T12:57:33.171Z,24.10
2023-01-13T13:00:00.094Z,17.70
2023-01-13T13:02:39.373Z,17.00
2023-01-13T13:05:15.667Z,21.77
2023-01-13T13:07:48.902Z,26.93
2023-01-13T13:10:30.879Z,17.70
2023-01-13T13:13:19.189Z,19.70
2023-01-13T13:15:49.609Z,19.83
2023-01-13T13:18:20.880Z,20.87
2023-01-13T13:21:10.131Z,19.63
2023-01-13T13:23:53.622Z,24.70
2023-01-13T13:26:30.800Z,23.03
2023-01-13T13:29:15.789Z,22.33
2023-01-13T13:31:51.705Z,20.33
2023-01-13T13:34:24.606Z,23.80
2023-01-13T13:37:09.452Z,22.90
2023-01-13T13:39:55.134Z,18.83
2023-01-13T13:42:39.258Z,21.13
2023-01-13T13:45:37.821Z,22.90
2023-01-13T13:48:27.942Z,20.80
2023-01-13T13:51:03.558Z,20.40
2023-01-13T13:53:38.713Z,23.37
2023-01-13T13:56:16.680Z,19.43
2023-01-13T13:58:43.930Z,17.60
2023-01-13T14:01:43.337Z,20.53
2023-01-13T14:04:14.908Z,19.00
2023-01-13T14:07:01.392Z,20.27
2023-01-13T14:09:40.363Z,26.40
2023-01-13T14:12:21.546Z,19.97
2023-01-13T14:14:50.756Z,16.47
2023-01-13T14:17:27.536Z,16.13
2023-01-13T14:20:07.886Z,22.13
2023-01-13T14:22:35.156Z,23.60
2023-01-13T14:25:02.161Z,18.23
2023-01-13T14:27:31.018Z,18.70
2023-01-13T14:30:00.990Z,15.13
2023-01-13T14:32:36.935Z,20.23
2023-01-13T14:35:08.192Z,15.40
2023-01-13T14:37:41.818Z,21.97
2023-01-13T14:40:33.654Z,15.97
2023-01-13T14:43:12.537Z,24.70
2023-01-13T14:45:56.900Z,11.90
2023-01-13T14:48:35.781Z,20.70
2023-01-13T14:51:09.501Z,20.40
2023-01-13T14:53:48.445Z,22.40
2023-01-13T14:56:44.203Z,20.67
2023-01-13T14:59:47.071Z,18.93
2023-01-13T15:02:34.615Z,24.97
2023-01-13T15:05:20.092Z,23.90
2023-01-13T15:07:53.159Z,18.00
2023-01-13T15:10:24.358Z,17.33
2023-01-13T15:12:54.505Z,19.53
2023-01-13T15:15:32.842Z,17.90
2023-01-13T15:18:02.593Z,22.20
2023-01-13T15:20:29.727Z,16.00
2023-01-13T15:23:01.388Z,20.57
2023-01-13T15:25:38.098Z,17.67
2023-01-13T15:28:09.296Z,17.80
2023-01-13T15:30:36.277Z,21.23
2023-01-13T15:33:03.572Z,19.87
2023-01-13T15:35:30.559Z,22.93
2023-01-13T15:37:58.254Z,19.97
2023-01-13T15:40:31.013Z,20.90
2023-01-13T15:43:16.781Z,17.80
2023-01-13T15:46:02.958Z,19.80
2023-01-13T15:48:32.839Z,17.63
2023-01-13T15:51:04.868Z,16.70
2023-01-13T15:53:36.824Z,14.33
2023-01-13T15:56:16.719Z,23.10
2023-01-13T15:58:43.660Z,17.93
2023-01-13T16:01:13.102Z,17.97
2023-01-13T16:03:40.631Z,20.90
2023-01-13T16:06:24.754Z,17.07
2023-01-13T16:08:51.731Z,23.53
2023-01-13T16:11:18.677Z,16.87
2023-01-13T16:13:48.670Z,28.80
2023-01-13T16:16:26.392Z,21.70
2023-01-13T16:18:54.333Z,17.03
2023-01-13T16:21:24.504Z,21.23
2023-01-13T16:23:54.900Z,23.90
2023-01-13T16:26:29.339Z,24.47
2023-01-13T16:28:57.975Z,22.17
2023-01-13T16:31:32.266Z,25.80
2023-01-13T16:34:01.684Z,26.30
2023-01-13T16:36:31.930Z,21.83
2023-01-13T16:38:59.046Z,26.33
2023-01-13T16:41:28.104Z,23.70
2023-01-13T16:43:55.139Z,26.17
2023-01-13T16:46:27.708Z,25.50
2023-01-13T16:48:58.312Z,27.30
2023-01-13T16:51:25.399Z,21.70
2023-01-13T16:53:52.986Z,28.50
2023-01-13T16:56:33.088Z,30.77
2023-01-13T16:59:08.928Z,28.73
2023-01-13T17:01:39.944Z,23.60
2023-01-13T17:04:07.907Z,31.13
2023-01-13T17:07:06.559Z,35.77
2023-01-13T17:09:33.509Z,27.47
2023-01-13T17:12:00.509Z,39.37
2023-01-13T17:14:27.535Z,30.13
2023-01-13T17:16:58.128Z,31.50
2023-01-13T17:19:26.451Z,25.70
2023-01-13T17:21:53.428Z,36.60
2023-01-13T17:24:20.603Z,31.37
2023-01-13T17:26:51.422Z,32.47
2023-01-13T17:29:22.314Z,33.30
2023-01-13T17:31:50.920Z,26.43
2023-01-13T17:34:21.253Z,27.93
2023-01-13T17:36:48.557Z,45.00
2023-01-13T17:39:18.878Z,34.57
2023-01-13T17:41:46.546Z,25.17
2023-01-13T17:44:15.730Z,31.60
2023-01-13T17:46:43.090Z,33.77
2023-01-13T17:49:15.331Z,28.33
2023-01-13T17:51:42.756Z,28.93
2023-01-13T17:54:12.498Z,37.67
2023-01-13T17:56:42.647Z,25.03
2023-01-13T17:59:12.625Z,35.43
2023-01-13T18:01:40.024Z,39.00
2023-01-13T18:04:07.795Z,38.43
2023-01-13T18:06:34.866Z,44.07
2023-01-13T18:09:01.897Z,34.40
2023-01-13T18:11:28.854Z,32.47
2023-01-13T18:13:58.771Z,40.07
2023-01-13T18:16:27.276Z,37.07
2023-01-13T18:19:18.524Z,33.53
2023-01-13T18:22:05.551Z,29.50
2023-01-13T18:24:51.311Z,33.70
2023-01-13T18:27:23.101Z,36.43
2023-01-13T18:29:58.778Z,40.50
2023-01-13T18:32:32.852Z,37.60
2023-01-13T18:35:05.994Z,37.67
2023-01-13T18:37:36.138Z,44.10
2023-01-13T18:40:04.838Z,31.97
2023-01-13T18:42:50.917Z,48.80
2023-01-13T18:45:28.838Z,42.23
2023-01-13T18:47:59.226Z,36.43
2023-01-13T18:50:27.124Z,41.17
2023-01-13T18:52:54.455Z,33.43
2023-01-13T18:55:22.219Z,40.13
2023-01-13T18:57:50.303Z,40.23
2023-01-13T19:00:20.865Z,41.57
2023-01-13T19:02:50.648Z,49.03
2023-01-13T19:05:18.119Z,46.27
2023-01-13T19:07:50.552Z,39.40
2023-01-13T19:10:18.384Z,40.47
2023-01-13T19:12:45.503Z,36.70
2023-01-13T19:15:12.615Z,37.00
2023-01-13T19:17:39.810Z,37.67
2023-01-13T19:20:07.602Z,36.20
2023-01-13T19:22:35.547Z,41.93
2023-01-13T19:25:04.243Z,38.53
2023-01-13T19:27:31.649Z,36.00
2023-01-13T19:30:00.631Z,35.63
2023-01-13T19:32:28.548Z,43.67
2023-01-13T19:34:59.249Z,41.10
2023-01-13T19:37:30.612Z,37.40
2023-01-13T19:39:59.181Z,42.87
2023-01-13T19:42:45.474Z,44.60
2023-01-13T19:45:27.258Z,46.47
2023-01-13T19:47:55.764Z,45.57
2023-01-13T19:50:22.920Z,37.70
2023-01-13T19:52:50.085Z,46.67
2023-01-13T19:55:17.235Z,37.07
2023-01-13T19:57:44.228Z,52.60
2023-01-13T20:00:15.198Z,39.50
2023-01-13T20:02:47.966Z,42.63
2023-01-13T20:05:25.644Z,45.33
2023-01-13T20:07:54.001Z,39.40
2023-01-13T20:10:24.362Z,42.70
2023-01-13T20:12:51.837Z,38.00
2023-01-13T20:15:18.931Z,40.07
2023-01-13T20:17:46.069Z,45.73
2023-01-13T20:20:15.769Z,42.00
2023-01-13T20:22:43.159Z,38.30
2023-01-13T20:25:11.466Z,51.83
2023-01-13T20:27:41.474Z,46.70
2023-01-13T20:30:13.439Z,58.20
2023-01-13T20:32:42.305Z,43.20
2023-01-13T20:35:10.040Z,46.47
2023-01-13T20:37:38.243Z,39.43
2023-01-13T20:40:07.686Z,35.93
2023-01-13T20:42:45.082Z,44.83
2023-01-13T20:45:18.057Z,43.83
2023-01-13T20:47:45.736Z,38.10
2023-01-13T20:50:13.899Z,37.77
2023-01-13T20:52:40.940Z,43.60
2023-01-13T20:55:09.242Z,51.03
2023-01-13T20:57:36.297Z,44.07
2023-01-13T21:00:05.476Z,43.97
2023-01-13T21:02:32.596Z,46.43
2023-01-13T21:04:59.586Z,39.27
2023-01-13T21:07:26.789Z,43.73
2023-01-13T21:09:53.719Z,49.13
2023-01-13T21:12:39.468Z,42.03
2023-01-13T21:15:21.695Z,47.33
2023-01-13T21:18:09.639Z,40.17
2023-01-13T21:20:38.535Z,35.50
2023-01-13T21:23:06.725Z,40.60
2023-01-13T21:25:35.525Z,37.20
2023-01-13T21:28:11.741Z,48.93
2023-01-13T21:30:40.142Z,31.80
2023-01-13T21:33:07.336Z,38.50
2023-01-13T21:35:38.839Z,35.63
2023-01-13T21:38:05.878Z,36.57
2023-01-13T21:40:32.850Z,38.27
2023-01-13T21:43:18.065Z,31.67
2023-01-13T21:46:05.497Z,36.10
2023-01-13T21:48:32.600Z,35.20
2023-01-13T21:51:02.464Z,29.33
2023-01-13T21:53:29.500Z,26.93
2023-01-13T21:55:56.511Z,39.80
2023-01-13T21:58:23.459Z,47.53
2023-01-13T22:00:50.497Z,38.37
2023-01-13T22:03:18.805Z,44.97
2023-01-13T22:05:46.518Z,44.83
2023-01-13T22:08:13.706Z,40.27
2023-01-13T22:10:58.169Z,37.87
2023-01-13T22:13:45.363Z,36.10
2023-01-13T22:16:13.185Z,38.27
2023-01-13T22:18:40.230Z,35.83
2023-01-13T22:21:07.502Z,41.77
2023-01-13T22:23:34.443Z,41.13
2023-01-13T22:26:06.147Z,43.03
2023-01-13T22:28:44.035Z,32.20
2023-01-13T22:31:16.442Z,40.20
2023-01-13T22:33:47.151Z,33.67
2023-01-13T22:36:16.148Z,37.70
2023-01-13T22:38:43.083Z,35.10
2023-01-13T22:41:10.915Z,41.87
2023-01-13T22:43:38.658Z,41.80
2023-01-13T22:46:08.045Z,46.57
2023-01-13T22:48:35.742Z,41.30
2023-01-13T22:51:22.877Z,35.17
2023-01-13T22:53:50.221Z,34.87
2023-01-13T22:56:23.971Z,46.13
2023-01-13T22:58:59.924Z,41.90
2023-01-13T23:01:30.862Z,38.67
2023-01-13T23:03:59.045Z,42.07
2023-01-13T23:06:28.609Z,43.63
2023-01-13T23:08:56.204Z,47.10
2023-01-13T23:11:29.427Z,43.00
2023-01-13T23:14:06.557Z,44.77
2023-01-13T23:16:37.306Z,47.80
2023-01-13T23:19:06.087Z,48.03
2023-01-13T23:21:36.799Z,38.13
2023-01-13T23:24:05.590Z,37.50
2023-01-13T23:26:33.326Z,48.83
2023-01-13T23:29:07.882Z,40.63
2023-01-13T23:31:35.143Z,41.33
2023-01-13T23:34:02.215Z,37.77
2023-01-13T23:36:30.027Z,40.97
2023-01-13T23:38:58.895Z,39.97
2023-01-13T23:41:27.253Z,44.03
2023-01-13T23:44:00.132Z,41.07
2023-01-13T23:46:29.747Z,46.20
2023-01-13T23:48:56.854Z,43.40
2023-01-13T23:51:25.283Z,47.17
2023-01-13T23:53:52.493Z,46.40
2023-01-13T23:56:23.219Z,40.37
2023-01-13T23:58:50.903Z,34.23
